sensor_id;sensor_type;location;lat;lon;timestamp;pressure;altitude;pressure_sealevel;temperature;humidity
63009;BME280;49099;28.428;-16.488;2023-06-10T00:01:45;98630.22;;;23.49;59.27
63009;BME280;49099;28.428;-16.488;2023-06-10T00:04:16;98636.69;;;23.44;59.47
63009;BME280;49099;28.428;-16.488;2023-06-10T00:06:44;98635.75;;;23.52;59.05
63009;BME280;49099;28.428;-16.488;2023-06-10T00:09:11;98627.63;;;23.52;59.14
63009;BME280;49099;28.428;-16.488;2023-06-10T00:11:39;98633.03;;;23.52;59.37
63009;BME280;49099;28.428;-16.488;2023-06-10T00:14:07;98622.19;;;23.52;59.89
63009;BME280;49099;28.428;-16.488;2023-06-10T00:16:34;98618.16;;;23.46;59.45
63009;BME280;49099;28.428;-16.488;2023-06-10T00:19:03;98624.06;;;23.36;60.21
63009;BME280;49099;28.428;-16.488;2023-06-10T00:21:31;98620.03;;;23.30;60.64
63009;BME280;49099;28.428;-16.488;2023-06-10T00:24:07;98624.31;;;23.31;60.93
63009;BME280;49099;28.428;-16.488;2023-06-10T00:26:39;98625.25;;;23.23;61.41
63009;BME280;49099;28.428;-16.488;2023-06-10T00:29:07;98624.22;;;23.27;61.53
63009;BME280;49099;28.428;-16.488;2023-06-10T00:31:35;98622.97;;;23.25;61.89
63009;BME280;49099;28.428;-16.488;2023-06-10T00:34:02;98628.41;;;23.25;61.20
63009;BME280;49099;28.428;-16.488;2023-06-10T00:36:29;98631.22;;;23.28;61.37
63009;BME280;49099;28.428;-16.488;2023-06-10T00:38:57;98631.06;;;23.37;60.80
63009;BME280;49099;28.428;-16.488;2023-06-10T00:41:24;98631.72;;;23.34;60.83
63009;BME280;49099;28.428;-16.488;2023-06-10T00:43:53;98631.72;;;23.34;60.77
63009;BME280;49099;28.428;-16.488;2023-06-10T00:46:21;98620.13;;;23.33;60.30
63009;BME280;49099;28.428;-16.488;2023-06-10T00:48:49;98616.19;;;23.31;60.40
63009;BME280;49099;28.428;-16.488;2023-06-10T00:51:16;98611.47;;;23.28;59.98
63009;BME280;49099;28.428;-16.488;2023-06-10T00:53:44;98609.66;;;23.32;59.83
63009;BME280;49099;28.428;-16.488;2023-06-10T00:56:13;98616.19;;;23.31;60.23
63009;BME280;49099;28.428;-16.488;2023-06-10T00:58:40;98609.22;;;23.30;60.42
63009;BME280;49099;28.428;-16.488;2023-06-10T01:01:07;98612.47;;;23.35;59.95
63009;BME280;49099;28.428;-16.488;2023-06-10T01:03:39;98613.94;;;23.33;59.84
63009;BME280;49099;28.428;-16.488;2023-06-10T01:11:23;98594.75;;;23.38;59.11
63009;BME280;49099;28.428;-16.488;2023-06-10T01:13:56;98583.91;;;23.38;59.31
63009;BME280;49099;28.428;-16.488;2023-06-10T01:16:29;98580.06;;;23.39;58.96
63009;BME280;49099;28.428;-16.488;2023-06-10T01:19:02;98575.78;;;23.38;59.15
63009;BME280;49099;28.428;-16.488;2023-06-10T01:21:34;98572.19;;;23.34;59.06
63009;BME280;49099;28.428;-16.488;2023-06-10T01:24:11;98569.06;;;23.32;59.05
63009;BME280;49099;28.428;-16.488;2023-06-10T01:26:51;98562.16;;;23.34;59.11
63009;BME280;49099;28.428;-16.488;2023-06-10T01:29:30;98562.06;;;23.31;58.77
63009;BME280;49099;28.428;-16.488;2023-06-10T01:32:08;98556.22;;;23.29;59.09
63009;BME280;49099;28.428;-16.488;2023-06-10T01:34:36;98560.94;;;23.32;59.05
63009;BME280;49099;28.428;-16.488;2023-06-10T01:37:04;98561.72;;;23.32;59.05
63009;BME280;49099;28.428;-16.488;2023-06-10T01:39:32;98561.84;;;23.36;58.78
63009;BME280;49099;28.428;-16.488;2023-06-10T01:42:00;98564.06;;;23.34;58.92
63009;BME280;49099;28.428;-16.488;2023-06-10T01:44:29;98555.53;;;23.32;58.84
63009;BME280;49099;28.428;-16.488;2023-06-10T01:46:56;98553.53;;;23.29;58.57
63009;BME280;49099;28.428;-16.488;2023-06-10T01:49:23;98549.69;;;23.30;59.08
63009;BME280;49099;28.428;-16.488;2023-06-10T01:51:51;98549.75;;;23.33;58.16
63009;BME280;49099;28.428;-16.488;2023-06-10T01:54:18;98546.81;;;23.39;58.57
63009;BME280;49099;28.428;-16.488;2023-06-10T01:56:45;98535.63;;;23.40;57.96
63009;BME280;49099;28.428;-16.488;2023-06-10T01:59:12;98544.28;;;23.46;57.50
63009;BME280;49099;28.428;-16.488;2023-06-10T02:01:39;98544.81;;;23.51;57.44
63009;BME280;49099;28.428;-16.488;2023-06-10T02:04:07;98542.13;;;23.51;57.45
63009;BME280;49099;28.428;-16.488;2023-06-10T02:06:34;98546.41;;;23.52;57.35
63009;BME280;49099;28.428;-16.488;2023-06-10T02:09:02;98548.66;;;23.50;57.38
63009;BME280;49099;28.428;-16.488;2023-06-10T02:11:29;98537.66;;;23.43;57.01
63009;BME280;49099;28.428;-16.488;2023-06-10T02:13:56;98542.88;;;23.36;56.97
63009;BME280;49099;28.428;-16.488;2023-06-10T02:16:23;98546.81;;;23.39;57.20
63009;BME280;49099;28.428;-16.488;2023-06-10T02:18:51;98529.78;;;23.38;57.09
63009;BME280;49099;28.428;-16.488;2023-06-10T02:21:18;98533.97;;;23.35;56.92
63009;BME280;49099;28.428;-16.488;2023-06-10T02:23:46;98530.31;;;23.28;57.50
63009;BME280;49099;28.428;-16.488;2023-06-10T02:26:13;98534.13;;;23.27;57.62
63009;BME280;49099;28.428;-16.488;2023-06-10T02:28:43;98522.22;;;23.16;58.03
63009;BME280;49099;28.428;-16.488;2023-06-10T02:31:11;98516.81;;;23.16;57.77
63009;BME280;49099;28.428;-16.488;2023-06-10T02:33:38;98517.59;;;23.16;57.00
63009;BME280;49099;28.428;-16.488;2023-06-10T02:36:07;98512.97;;;23.17;56.79
63009;BME280;49099;28.428;-16.488;2023-06-10T02:38:34;98501.03;;;23.18;56.64
63009;BME280;49099;28.428;-16.488;2023-06-10T02:41:01;98503.72;;;23.18;56.48
63009;BME280;49099;28.428;-16.488;2023-06-10T02:43:28;98506.78;;;23.16;56.38
63009;BME280;49099;28.428;-16.488;2023-06-10T02:45:55;98502.94;;;23.17;56.28
63009;BME280;49099;28.428;-16.488;2023-06-10T02:48:25;98506.94;;;23.07;55.96
63009;BME280;49099;28.428;-16.488;2023-06-10T02:50:52;98498.19;;;22.98;56.47
63009;BME280;49099;28.428;-16.488;2023-06-10T02:53:19;98496.34;;;23.02;56.67
63009;BME280;49099;28.428;-16.488;2023-06-10T02:55:46;98496.97;;;22.96;56.47
63009;BME280;49099;28.428;-16.488;2023-06-10T02:58:14;98501.56;;;22.95;56.66
63009;BME280;49099;28.428;-16.488;2023-06-10T03:00:41;98502.47;;;22.99;56.55
63009;BME280;49099;28.428;-16.488;2023-06-10T03:03:10;98495.56;;;23.02;56.06
63009;BME280;49099;28.428;-16.488;2023-06-10T03:05:37;98494.91;;;23.05;55.51
63009;BME280;49099;28.428;-16.488;2023-06-10T03:08:04;98502.66;;;23.06;55.80
63009;BME280;49099;28.428;-16.488;2023-06-10T03:10:31;98496.47;;;23.06;55.86
63009;BME280;49099;28.428;-16.488;2023-06-10T03:12:59;98494.13;;;23.04;55.10
63009;BME280;49099;28.428;-16.488;2023-06-10T03:15:27;98498.63;;;23.00;55.40
63009;BME280;49099;28.428;-16.488;2023-06-10T03:17:55;98501.78;;;23.02;55.49
63009;BME280;49099;28.428;-16.488;2023-06-10T03:20:22;98495.56;;;23.02;55.24
63009;BME280;49099;28.428;-16.488;2023-06-10T03:22:50;98500.19;;;23.01;54.70
63009;BME280;49099;28.428;-16.488;2023-06-10T03:25:18;98495.50;;;22.98;54.42
63009;BME280;49099;28.428;-16.488;2023-06-10T03:27:47;98492.59;;;22.91;54.34
63009;BME280;49099;28.428;-16.488;2023-06-10T03:30:14;98495.28;;;22.91;54.58
63009;BME280;49099;28.428;-16.488;2023-06-10T03:32:42;98494.94;;;22.93;54.88
63009;BME280;49099;28.428;-16.488;2023-06-10T03:35:10;98481.41;;;22.93;54.83
63009;BME280;49099;28.428;-16.488;2023-06-10T03:37:37;98494.59;;;22.94;53.93
63009;BME280;49099;28.428;-16.488;2023-06-10T03:40:05;98486.16;;;22.96;54.35
63009;BME280;49099;28.428;-16.488;2023-06-10T03:42:32;98491.38;;;22.89;53.79
63009;BME280;49099;28.428;-16.488;2023-06-10T03:44:59;98489.34;;;22.86;54.55
63009;BME280;49099;28.428;-16.488;2023-06-10T03:47:27;98480.44;;;22.85;53.90
63009;BME280;49099;28.428;-16.488;2023-06-10T03:49:54;98480.56;;;22.89;53.23
63009;BME280;49099;28.428;-16.488;2023-06-10T03:52:21;98476.25;;;22.88;53.87
63009;BME280;49099;28.428;-16.488;2023-06-10T03:54:48;98479.06;;;22.91;53.50
63009;BME280;49099;28.428;-16.488;2023-06-10T03:57:15;98480.56;;;22.89;53.11
63009;BME280;49099;28.428;-16.488;2023-06-10T03:59:42;98478.16;;;22.87;53.35
63009;BME280;49099;28.428;-16.488;2023-06-10T04:02:09;98481.53;;;22.84;53.38
63009;BME280;49099;28.428;-16.488;2023-06-10T04:04:37;98487.41;;;22.86;53.74
63009;BME280;49099;28.428;-16.488;2023-06-10T04:07:04;98482.00;;;22.86;53.21
63009;BME280;49099;28.428;-16.488;2023-06-10T04:09:32;98485.84;;;22.85;53.21
63009;BME280;49099;28.428;-16.488;2023-06-10T04:11:59;98489.66;;;22.84;52.61
63009;BME280;49099;28.428;-16.488;2023-06-10T04:14:26;98486.53;;;22.82;52.50
63009;BME280;49099;28.428;-16.488;2023-06-10T04:16:53;98483.81;;;22.82;51.96
63009;BME280;49099;28.428;-16.488;2023-06-10T04:19:20;98489.56;;;22.80;52.06
63009;BME280;49099;28.428;-16.488;2023-06-10T04:21:48;98485.19;;;22.76;52.29
63009;BME280;49099;28.428;-16.488;2023-06-10T04:24:15;98478.22;;;22.75;52.29
63009;BME280;49099;28.428;-16.488;2023-06-10T04:26:42;98475.94;;;22.77;52.64
63009;BME280;49099;28.428;-16.488;2023-06-10T04:29:09;98473.25;;;22.77;52.52
63009;BME280;49099;28.428;-16.488;2023-06-10T04:31:36;98472.81;;;22.75;52.84
63009;BME280;49099;28.428;-16.488;2023-06-10T04:34:03;98461.97;;;22.75;52.96
63009;BME280;49099;28.428;-16.488;2023-06-10T04:36:31;98463.13;;;22.74;53.09
63009;BME280;49099;28.428;-16.488;2023-06-10T04:38:58;98468.41;;;22.70;52.85
63009;BME280;49099;28.428;-16.488;2023-06-10T04:41:27;98463.16;;;22.62;53.58
63009;BME280;49099;28.428;-16.488;2023-06-10T04:43:54;98478.00;;;22.68;53.42
63009;BME280;49099;28.428;-16.488;2023-06-10T04:46:21;98469.00;;;22.64;53.61
63009;BME280;49099;28.428;-16.488;2023-06-10T04:48:48;98473.03;;;22.70;53.31
63009;BME280;49099;28.428;-16.488;2023-06-10T04:51:15;98472.16;;;22.66;52.65
63009;BME280;49099;28.428;-16.488;2023-06-10T04:53:43;98473.31;;;22.65;53.00
63009;BME280;49099;28.428;-16.488;2023-06-10T04:56:11;98469.69;;;22.61;53.14
63009;BME280;49099;28.428;-16.488;2023-06-10T04:58:38;98476.66;;;22.62;52.79
63009;BME280;49099;28.428;-16.488;2023-06-10T05:01:05;98471.25;;;22.62;52.66
63009;BME280;49099;28.428;-16.488;2023-06-10T05:03:32;98473.09;;;22.58;52.99
63009;BME280;49099;28.428;-16.488;2023-06-10T05:06:00;98461.72;;;22.52;53.01
63009;BME280;49099;28.428;-16.488;2023-06-10T05:08:27;98464.00;;;22.50;53.03
63009;BME280;49099;28.428;-16.488;2023-06-10T05:10:54;98474.47;;;22.51;52.97
63009;BME280;49099;28.428;-16.488;2023-06-10T05:13:21;98477.16;;;22.51;53.20
63009;BME280;49099;28.428;-16.488;2023-06-10T05:15:48;98481.66;;;22.47;52.92
63009;BME280;49099;28.428;-16.488;2023-06-10T05:18:15;98480.66;;;22.40;53.46
63009;BME280;49099;28.428;-16.488;2023-06-10T05:20:42;98478.75;;;22.40;53.47
63009;BME280;49099;28.428;-16.488;2023-06-10T05:23:09;98487.75;;;22.44;53.73
63009;BME280;49099;28.428;-16.488;2023-06-10T05:25:37;98474.25;;;22.44;53.63
63009;BME280;49099;28.428;-16.488;2023-06-10T05:28:04;98471.75;;;22.51;53.98
63009;BME280;49099;28.428;-16.488;2023-06-10T05:30:31;98465.66;;;22.55;53.93
63009;BME280;49099;28.428;-16.488;2023-06-10T05:32:58;98462.94;;;22.55;53.69
63009;BME280;49099;28.428;-16.488;2023-06-10T05:35:25;98462.50;;;22.52;53.55
63009;BME280;49099;28.428;-16.488;2023-06-10T05:37:52;98467.91;;;22.52;53.00
63009;BME280;49099;28.428;-16.488;2023-06-10T05:40:20;98466.59;;;22.46;53.20
63009;BME280;49099;28.428;-16.488;2023-06-10T05:42:47;98480.78;;;22.43;53.44
63009;BME280;49099;28.428;-16.488;2023-06-10T05:45:15;98477.66;;;22.41;53.39
63009;BME280;49099;28.428;-16.488;2023-06-10T05:47:43;98471.13;;;22.42;53.32
63009;BME280;49099;28.428;-16.488;2023-06-10T05:50:10;98479.22;;;22.42;53.55
63009;BME280;49099;28.428;-16.488;2023-06-10T05:52:37;98484.72;;;22.46;53.68
63009;BME280;49099;28.428;-16.488;2023-06-10T05:55:07;98493.72;;;22.50;53.96
63009;BME280;49099;28.428;-16.488;2023-06-10T05:57:35;98495.75;;;22.53;53.26
63009;BME280;49099;28.428;-16.488;2023-06-10T06:00:03;98505.06;;;22.56;52.84
63009;BME280;49099;28.428;-16.488;2023-06-10T06:02:31;98512.75;;;22.53;52.39
63009;BME280;49099;28.428;-16.488;2023-06-10T06:04:58;98507.56;;;22.48;52.32
63009;BME280;49099;28.428;-16.488;2023-06-10T06:07:26;98512.97;;;22.48;52.47
63009;BME280;49099;28.428;-16.488;2023-06-10T06:09:53;98507.91;;;22.47;52.60
63009;BME280;49099;28.428;-16.488;2023-06-10T06:12:20;98514.44;;;22.46;52.73
63009;BME280;49099;28.428;-16.488;2023-06-10T06:14:47;98511.66;;;22.42;52.79
63009;BME280;49099;28.428;-16.488;2023-06-10T06:17:16;98506.91;;;22.39;53.00
63009;BME280;49099;28.428;-16.488;2023-06-10T06:19:43;98500.72;;;22.39;52.76
63009;BME280;49099;28.428;-16.488;2023-06-10T06:22:10;98497.00;;;22.43;52.91
63009;BME280;49099;28.428;-16.488;2023-06-10T06:24:38;98498.22;;;22.46;52.97
63009;BME280;49099;28.428;-16.488;2023-06-10T06:27:05;98488.63;;;22.48;52.54
63009;BME280;49099;28.428;-16.488;2023-06-10T06:29:33;98485.63;;;22.50;52.62
63009;BME280;49099;28.428;-16.488;2023-06-10T06:32:01;98490.34;;;22.53;52.60
63009;BME280;49099;28.428;-16.488;2023-06-10T06:34:28;98490.75;;;22.55;52.53
63009;BME280;49099;28.428;-16.488;2023-06-10T06:36:55;98476.47;;;22.55;52.30
63009;BME280;49099;28.428;-16.488;2023-06-10T06:39:22;98490.34;;;22.53;51.59
63009;BME280;49099;28.428;-16.488;2023-06-10T06:41:49;98494.31;;;22.43;52.83
63009;BME280;49099;28.428;-16.488;2023-06-10T06:44:17;98494.66;;;22.42;53.17
63009;BME280;49099;28.428;-16.488;2023-06-10T06:46:44;98490.47;;;22.44;53.58
63009;BME280;49099;28.428;-16.488;2023-06-10T06:49:11;98483.22;;;22.48;53.42
63009;BME280;49099;28.428;-16.488;2023-06-10T06:51:38;98477.84;;;22.48;52.94
63009;BME280;49099;28.428;-16.488;2023-06-10T06:54:05;98478.72;;;22.52;53.31
63009;BME280;49099;28.428;-16.488;2023-06-10T06:56:32;98474.47;;;22.51;53.41
63009;BME280;49099;28.428;-16.488;2023-06-10T06:58:59;98482.78;;;22.59;53.09
63009;BME280;49099;28.428;-16.488;2023-06-10T07:01:27;98476.59;;;22.58;53.32
63009;BME280;49099;28.428;-16.488;2023-06-10T07:03:54;98483.56;;;22.59;53.37
63009;BME280;49099;28.428;-16.488;2023-06-10T07:06:21;98482.97;;;22.66;52.38
63009;BME280;49099;28.428;-16.488;2023-06-10T07:08:49;98482.28;;;22.69;51.98
63009;BME280;49099;28.428;-16.488;2023-06-10T07:11:17;98491.53;;;22.68;52.00
63009;BME280;49099;28.428;-16.488;2023-06-10T07:13:44;98486.22;;;22.71;51.73
63009;BME280;49099;28.428;-16.488;2023-06-10T07:16:11;98485.34;;;22.67;52.54
63009;BME280;49099;28.428;-16.488;2023-06-10T07:18:38;98486.81;;;22.65;52.82
63009;BME280;49099;28.428;-16.488;2023-06-10T07:21:05;98496.25;;;22.71;52.56
63009;BME280;49099;28.428;-16.488;2023-06-10T07:23:33;98505.03;;;22.68;52.64
63009;BME280;49099;28.428;-16.488;2023-06-10T07:26:00;98516.88;;;22.63;52.26
63009;BME280;49099;28.428;-16.488;2023-06-10T07:28:27;98514.31;;;22.55;52.88
63009;BME280;49099;28.428;-16.488;2023-06-10T07:30:54;98515.22;;;22.59;53.50
63009;BME280;49099;28.428;-16.488;2023-06-10T07:33:21;98518.44;;;22.64;54.16
63009;BME280;49099;28.428;-16.488;2023-06-10T07:35:49;98527.13;;;22.70;54.28
63009;BME280;49099;28.428;-16.488;2023-06-10T07:38:17;98522.59;;;22.74;54.11
63009;BME280;49099;28.428;-16.488;2023-06-10T07:40:44;98525.09;;;22.67;55.02
63009;BME280;49099;28.428;-16.488;2023-06-10T07:43:12;98528.69;;;22.71;54.52
63009;BME280;49099;28.428;-16.488;2023-06-10T07:45:40;98521.91;;;22.77;54.60
63009;BME280;49099;28.428;-16.488;2023-06-10T07:48:08;98526.28;;;22.94;54.17
63009;BME280;49099;28.428;-16.488;2023-06-10T07:50:35;98527.25;;;23.01;53.75
63009;BME280;49099;28.428;-16.488;2023-06-10T07:53:03;98531.53;;;23.02;54.04
63009;BME280;49099;28.428;-16.488;2023-06-10T07:55:30;98530.09;;;22.93;53.85
63009;BME280;49099;28.428;-16.488;2023-06-10T07:57:57;98530.91;;;22.93;54.15
63009;BME280;49099;28.428;-16.488;2023-06-10T08:00:24;98527.53;;;22.96;54.51
63009;BME280;49099;28.428;-16.488;2023-06-10T08:02:51;98530.41;;;23.03;54.61
63009;BME280;49099;28.428;-16.488;2023-06-10T08:05:19;98532.00;;;23.04;54.92
63009;BME280;49099;28.428;-16.488;2023-06-10T08:07:47;98533.56;;;23.05;55.00
63009;BME280;49099;28.428;-16.488;2023-06-10T08:10:14;98528.72;;;22.99;55.08
63009;BME280;49099;28.428;-16.488;2023-06-10T08:12:41;98534.22;;;23.02;54.96
63009;BME280;49099;28.428;-16.488;2023-06-10T08:15:09;98533.56;;;23.05;54.28
63009;BME280;49099;28.428;-16.488;2023-06-10T08:17:37;98540.78;;;23.01;54.21
63009;BME280;49099;28.428;-16.488;2023-06-10T08:20:06;98530.41;;;23.03;54.27
63009;BME280;49099;28.428;-16.488;2023-06-10T08:22:33;98530.16;;;23.08;54.09
63009;BME280;49099;28.428;-16.488;2023-06-10T08:25:00;98535.31;;;23.14;54.10
63009;BME280;49099;28.428;-16.488;2023-06-10T08:27:27;98535.53;;;23.21;53.48
63009;BME280;49099;28.428;-16.488;2023-06-10T08:29:54;98533.16;;;23.19;53.14
63009;BME280;49099;28.428;-16.488;2023-06-10T08:32:22;98537.09;;;23.22;52.75
63009;BME280;49099;28.428;-16.488;2023-06-10T08:34:49;98540.66;;;23.26;52.48
63009;BME280;49099;28.428;-16.488;2023-06-10T08:37:17;98539.78;;;23.22;52.62
63009;BME280;49099;28.428;-16.488;2023-06-10T08:39:44;98548.78;;;23.26;51.78
63009;BME280;49099;28.428;-16.488;2023-06-10T08:42:43;98542.88;;;23.36;51.45
63009;BME280;49099;28.428;-16.488;2023-06-10T08:45:16;98548.19;;;23.32;52.00
63009;BME280;49099;28.428;-16.488;2023-06-10T08:47:45;98554.56;;;23.40;51.85
63009;BME280;49099;28.428;-16.488;2023-06-10T08:50:15;98557.19;;;23.37;52.07
63009;BME280;49099;28.428;-16.488;2023-06-10T08:52:44;98551.94;;;23.28;52.77
63009;BME280;49099;28.428;-16.488;2023-06-10T08:55:15;98550.47;;;23.30;52.22
63009;BME280;49099;28.428;-16.488;2023-06-10T08:57:45;98558.22;;;23.32;52.23
63009;BME280;49099;28.428;-16.488;2023-06-10T09:00:13;98553.91;;;23.43;51.81
63009;BME280;49099;28.428;-16.488;2023-06-10T09:02:41;98563.59;;;23.44;51.71
63009;BME280;49099;28.428;-16.488;2023-06-10T09:05:09;98563.94;;;23.43;51.39
63009;BME280;49099;28.428;-16.488;2023-06-10T09:07:37;98565.16;;;23.45;52.08
63009;BME280;49099;28.428;-16.488;2023-06-10T09:10:05;98565.69;;;23.51;51.84
63009;BME280;49099;28.428;-16.488;2023-06-10T09:12:35;98565.78;;;23.54;52.15
63009;BME280;49099;28.428;-16.488;2023-06-10T09:15:02;98556.94;;;23.57;51.23
63009;BME280;49099;28.428;-16.488;2023-06-10T09:17:30;98557.16;;;23.65;51.15
63009;BME280;49099;28.428;-16.488;2023-06-10T09:19:57;98553.31;;;23.66;51.52
63009;BME280;49099;28.428;-16.488;2023-06-10T09:22:24;98552.22;;;23.67;51.58
63009;BME280;49099;28.428;-16.488;2023-06-10T09:25:08;98553.78;;;23.68;50.95
63009;BME280;49099;28.428;-16.488;2023-06-10T09:30:32;98562.16;;;23.62;52.39
63009;BME280;49099;28.428;-16.488;2023-06-10T09:33:02;98573.91;;;23.54;53.92
63009;BME280;49099;28.428;-16.488;2023-06-10T09:35:30;98573.28;;;23.45;54.64
63009;BME280;49099;28.428;-16.488;2023-06-10T09:37:59;98570.03;;;23.40;54.51
63009;BME280;49099;28.428;-16.488;2023-06-10T09:40:27;98562.53;;;23.49;55.20
63009;BME280;49099;28.428;-16.488;2023-06-10T09:42:59;98558.09;;;23.56;52.63
63009;BME280;49099;28.428;-16.488;2023-06-10T09:45:31;98561.44;;;23.66;51.16
63009;BME280;49099;28.428;-16.488;2023-06-10T09:47:58;98568.63;;;23.74;52.70
63009;BME280;49099;28.428;-16.488;2023-06-10T09:50:26;98566.78;;;23.78;53.33
63009;BME280;49099;28.428;-16.488;2023-06-10T09:52:54;98557.88;;;23.77;52.74
63009;BME280;49099;28.428;-16.488;2023-06-10T09:55:21;98562.94;;;23.79;53.03
63009;BME280;49099;28.428;-16.488;2023-06-10T09:57:53;98582.78;;;23.83;51.79
63009;BME280;49099;28.428;-16.488;2023-06-10T10:00:22;98578.56;;;23.70;52.81
63009;BME280;49099;28.428;-16.488;2023-06-10T10:02:51;98573.53;;;23.68;53.74
63009;BME280;49099;28.428;-16.488;2023-06-10T10:05:21;98579.28;;;23.67;54.80
63009;BME280;49099;28.428;-16.488;2023-06-10T10:07:49;98590.13;;;23.67;53.99
63009;BME280;49099;28.428;-16.488;2023-06-10T10:10:19;98598.03;;;23.59;54.86
63009;BME280;49099;28.428;-16.488;2023-06-10T10:12:48;98598.50;;;23.61;53.42
63009;BME280;49099;28.428;-16.488;2023-06-10T10:15:17;98606.38;;;23.67;54.71
63009;BME280;49099;28.428;-16.488;2023-06-10T10:17:58;98607.59;;;23.69;54.56
63009;BME280;49099;28.428;-16.488;2023-06-10T10:20:29;98614.22;;;23.72;55.12
63009;BME280;49099;28.428;-16.488;2023-06-10T10:22:57;98607.78;;;23.76;55.52
63009;BME280;49099;28.428;-16.488;2023-06-10T10:25:29;98597.47;;;23.82;52.53
63009;BME280;49099;28.428;-16.488;2023-06-10T10:28:11;98597.38;;;23.78;49.12
63009;BME280;49099;28.428;-16.488;2023-06-10T10:30:46;98602.78;;;23.94;51.22
63009;BME280;49099;28.428;-16.488;2023-06-10T10:33:18;98589.25;;;23.94;49.23
63009;BME280;49099;28.428;-16.488;2023-06-10T10:35:46;98594.66;;;23.94;53.10
63009;BME280;49099;28.428;-16.488;2023-06-10T10:38:14;98586.91;;;23.93;53.95
63009;BME280;49099;28.428;-16.488;2023-06-10T10:40:43;98586.34;;;24.03;52.17
63009;BME280;49099;28.428;-16.488;2023-06-10T10:43:13;98583.81;;;24.10;51.65
63009;BME280;49099;28.428;-16.488;2023-06-10T10:45:40;98580.69;;;24.08;51.14
63009;BME280;49099;28.428;-16.488;2023-06-10T10:48:09;98591.16;;;24.09;52.66
63009;BME280;49099;28.428;-16.488;2023-06-10T10:50:39;98586.47;;;24.06;54.12
63009;BME280;49099;28.428;-16.488;2023-06-10T10:53:07;98595.72;;;24.05;53.12
63009;BME280;49099;28.428;-16.488;2023-06-10T10:55:35;98602.00;;;23.94;55.84
63009;BME280;49099;28.428;-16.488;2023-06-10T10:58:07;98607.97;;;23.99;55.95
63009;BME280;49099;28.428;-16.488;2023-06-10T11:00:43;98605.69;;;24.01;55.87
63009;BME280;49099;28.428;-16.488;2023-06-10T11:03:16;98614.41;;;24.10;55.98
63009;BME280;49099;28.428;-16.488;2023-06-10T11:05:49;98604.81;;;24.13;55.54
63009;BME280;49099;28.428;-16.488;2023-06-10T11:10:56;98607.59;;;24.16;54.86
63009;BME280;49099;28.428;-16.488;2023-06-10T11:13:25;98607.84;;;24.11;56.06
63009;BME280;49099;28.428;-16.488;2023-06-10T11:15:57;98610.47;;;24.24;55.86
63009;BME280;49099;28.428;-16.488;2023-06-10T11:18:29;98609.34;;;24.25;54.74
63009;BME280;49099;28.428;-16.488;2023-06-10T11:21:02;98619.66;;;24.19;54.82
63009;BME280;49099;28.428;-16.488;2023-06-10T11:23:34;98613.72;;;24.13;55.84
63009;BME280;49099;28.428;-16.488;2023-06-10T11:29:00;98612.06;;;24.25;55.27
63009;BME280;49099;28.428;-16.488;2023-06-10T11:31:32;98615.91;;;24.24;55.46
63009;BME280;49099;28.428;-16.488;2023-06-10T11:34:02;98614.75;;;24.25;56.01
63009;BME280;49099;28.428;-16.488;2023-06-10T11:36:31;98603.91;;;24.25;55.63
63009;BME280;49099;28.428;-16.488;2023-06-10T11:39:00;98602.53;;;24.31;54.38
63009;BME280;49099;28.428;-16.488;2023-06-10T11:41:30;98604.81;;;24.29;55.27
63009;BME280;49099;28.428;-16.488;2023-06-10T11:44:03;98606.28;;;24.42;55.67
63009;BME280;49099;28.428;-16.488;2023-06-10T11:46:30;98609.16;;;24.49;54.63
63009;BME280;49099;28.428;-16.488;2023-06-10T11:48:59;98613.72;;;24.45;54.07
63009;BME280;49099;28.428;-16.488;2023-06-10T11:51:28;98604.47;;;24.46;54.23
63009;BME280;49099;28.428;-16.488;2023-06-10T11:53:55;98601.44;;;24.51;54.33
63009;BME280;49099;28.428;-16.488;2023-06-10T11:56:27;98603.66;;;24.45;53.42
63009;BME280;49099;28.428;-16.488;2023-06-10T11:58:58;98591.41;;;24.52;54.21
63009;BME280;49099;28.428;-16.488;2023-06-10T12:01:28;98581.84;;;24.58;53.94
63009;BME280;49099;28.428;-16.488;2023-06-10T12:04:03;98589.25;;;24.77;54.10
63009;BME280;49099;28.428;-16.488;2023-06-10T12:06:46;98589.50;;;24.71;52.99
63009;BME280;49099;28.428;-16.488;2023-06-10T12:12:05;98580.66;;;24.74;52.51
63009;BME280;49099;28.428;-16.488;2023-06-10T12:14:55;98597.09;;;24.82;53.39
63009;BME280;49099;28.428;-16.488;2023-06-10T12:20:08;98607.50;;;24.80;52.46
63009;BME280;49099;28.428;-16.488;2023-06-10T12:22:43;98597.38;;;24.77;53.66
63009;BME280;49099;28.428;-16.488;2023-06-10T12:25:11;98595.81;;;24.76;53.73
63009;BME280;49099;28.428;-16.488;2023-06-10T12:27:41;98598.00;;;24.70;53.91
63009;BME280;49099;28.428;-16.488;2023-06-10T12:30:22;98600.94;;;24.61;52.27
63009;BME280;49099;28.428;-16.488;2023-06-10T12:32:50;98599.53;;;24.67;53.04
63009;BME280;49099;28.428;-16.488;2023-06-10T12:35:23;98591.19;;;24.76;52.19
63009;BME280;49099;28.428;-16.488;2023-06-10T12:38:04;98588.31;;;24.88;47.83
63009;BME280;49099;28.428;-16.488;2023-06-10T12:40:37;98585.06;;;24.98;50.10
63009;BME280;49099;28.428;-16.488;2023-06-10T12:43:07;98578.00;;;25.13;50.79
63009;BME280;49099;28.428;-16.488;2023-06-10T12:45:36;98578.84;;;25.17;51.91
63009;BME280;49099;28.428;-16.488;2023-06-10T12:48:23;98576.09;;;25.14;49.96
63009;BME280;49099;28.428;-16.488;2023-06-10T12:50:55;98571.69;;;25.28;49.80
63009;BME280;49099;28.428;-16.488;2023-06-10T12:53:23;98562.91;;;25.35;49.47
63009;BME280;49099;28.428;-16.488;2023-06-10T12:55:51;98569.06;;;25.32;47.55
63009;BME280;49099;28.428;-16.488;2023-06-10T12:58:21;98557.56;;;25.39;48.15
63009;BME280;49099;28.428;-16.488;2023-06-10T13:00:49;98559.81;;;25.37;47.75
63009;BME280;49099;28.428;-16.488;2023-06-10T13:03:19;98559.44;;;25.15;49.96
63009;BME280;49099;28.428;-16.488;2023-06-10T13:05:47;98566.91;;;25.02;51.55
63009;BME280;49099;28.428;-16.488;2023-06-10T13:08:15;98563.16;;;25.07;52.22